sensor_id;sensor_type;location;lat;lon;timestamp;pressure;altitude;pressure_sealevel;temperature;humidity
79309;BME280;68767;53.078;7.386;2023-04-20T00:01:23;102536.22;;;7.94;59.95
79309;BME280;68767;53.078;7.386;2023-04-20T00:03:50;102530.66;;;7.96;59.73
79309;BME280;68767;53.078;7.386;2023-04-20T00:06:18;102519.16;;;8.00;60.22
79309;BME280;68767;53.078;7.386;2023-04-20T00:08:47;102515.94;;;7.98;60.92
79309;BME280;68767;53.078;7.386;2023-04-20T00:11:14;102512.44;;;7.98;59.78
79309;BME280;68767;53.078;7.386;2023-04-20T00:13:41;102513.25;;;7.98;59.67
79309;BME280;68767;53.078;7.386;2023-04-20T00:16:08;102508.66;;;7.94;60.61
79309;BME280;68767;53.078;7.386;2023-04-20T00:18:35;102507.91;;;7.98;60.48
79309;BME280;68767;53.078;7.386;2023-04-20T00:21:02;102498.06;;;8.04;59.64
79309;BME280;68767;53.078;7.386;2023-04-20T00:23:29;102493.75;;;8.03;61.08
79309;BME280;68767;53.078;7.386;2023-04-20T00:25:56;102497.25;;;8.03;59.54
79309;BME280;68767;53.078;7.386;2023-04-20T00:28:23;102487.06;;;8.05;60.22
79309;BME280;68767;53.078;7.386;2023-04-20T00:30:50;102484.94;;;8.07;60.09
79309;BME280;68767;53.078;7.386;2023-04-20T00:33:17;102481.47;;;8.07;60.05
79309;BME280;68767;53.078;7.386;2023-04-20T00:35:44;102491.63;;;8.10;59.74
79309;BME280;68767;53.078;7.386;2023-04-20T00:38:10;102474.78;;;8.09;59.69
79309;BME280;68767;53.078;7.386;2023-04-20T00:40:37;102472.91;;;8.10;60.35
79309;BME280;68767;53.078;7.386;2023-04-20T00:43:09;102472.38;;;8.08;60.89
79309;BME280;68767;53.078;7.386;2023-04-20T00:45:36;102470.78;;;8.12;60.31
79309;BME280;68767;53.078;7.386;2023-04-20T00:48:03;102468.88;;;8.07;60.00
79309;BME280;68767;53.078;7.386;2023-04-20T00:50:31;102462.19;;;8.05;60.47
79309;BME280;68767;53.078;7.386;2023-04-20T00:52:59;102453.63;;;8.08;60.99
79309;BME280;68767;53.078;7.386;2023-04-20T00:55:28;102441.03;;;8.08;60.15
79309;BME280;68767;53.078;7.386;2023-04-20T00:57:56;102434.63;;;8.04;60.71
79309;BME280;68767;53.078;7.386;2023-04-20T01:00:24;102435.16;;;8.06;59.83
79309;BME280;68767;53.078;7.386;2023-04-20T01:02:51;102427.38;;;8.05;59.18
79309;BME280;68767;53.078;7.386;2023-04-20T01:05:19;102427.38;;;8.05;59.32
79309;BME280;68767;53.078;7.386;2023-04-20T01:07:46;102422.03;;;8.05;59.05
79309;BME280;68767;53.078;7.386;2023-04-20T01:10:13;102422.00;;;8.00;59.74
79309;BME280;68767;53.078;7.386;2023-04-20T01:12:40;102403.25;;;8.00;59.93
79309;BME280;68767;53.078;7.386;2023-04-20T01:15:09;102404.88;;;7.96;59.68
79309;BME280;68767;53.078;7.386;2023-04-20T01:17:38;102405.94;;;7.95;59.97
79309;BME280;68767;53.078;7.386;2023-04-20T01:20:09;102391.47;;;7.96;60.15
79309;BME280;68767;53.078;7.386;2023-04-20T01:22:47;102376.22;;;8.01;59.26
79309;BME280;68767;53.078;7.386;2023-04-20T01:25:15;102385.06;;;7.97;60.19
79309;BME280;68767;53.078;7.386;2023-04-20T01:27:43;102375.69;;;7.99;60.44
79309;BME280;68767;53.078;7.386;2023-04-20T01:30:11;102382.97;;;8.04;60.25
79309;BME280;68767;53.078;7.386;2023-04-20T01:32:39;102376.25;;;8.06;61.54
79309;BME280;68767;53.078;7.386;2023-04-20T01:35:07;102373.06;;;8.04;61.48
79309;BME280;68767;53.078;7.386;2023-04-20T01:37:36;102372.78;;;8.06;62.00
79309;BME280;68767;53.078;7.386;2023-04-20T01:40:03;102370.09;;;8.06;61.68
79309;BME280;68767;53.078;7.386;2023-04-20T01:42:31;102363.94;;;8.00;61.56
79309;BME280;68767;53.078;7.386;2023-04-20T01:44:58;102357.50;;;8.01;62.11
79309;BME280;68767;53.078;7.386;2023-04-20T01:47:25;102354.81;;;8.01;63.07
79309;BME280;68767;53.078;7.386;2023-04-20T01:49:52;102350.53;;;7.95;62.71
79309;BME280;68767;53.078;7.386;2023-04-20T01:52:19;102352.66;;;7.88;63.47
79309;BME280;68767;53.078;7.386;2023-04-20T01:54:47;102352.34;;;7.84;63.46
79309;BME280;68767;53.078;7.386;2023-04-20T01:57:14;102348.81;;;7.74;63.82
79309;BME280;68767;53.078;7.386;2023-04-20T01:59:41;102349.09;;;7.72;64.27
79309;BME280;68767;53.078;7.386;2023-04-20T02:02:08;102347.44;;;7.66;64.61
79309;BME280;68767;53.078;7.386;2023-04-20T02:04:35;102332.47;;;7.65;65.28
79309;BME280;68767;53.078;7.386;2023-04-20T02:07:02;102336.75;;;7.66;64.28
79309;BME280;68767;53.078;7.386;2023-04-20T02:09:29;102329.00;;;7.65;63.61
79309;BME280;68767;53.078;7.386;2023-04-20T02:11:56;102330.31;;;7.62;64.61
79309;BME280;68767;53.078;7.386;2023-04-20T02:14:23;102322.03;;;7.64;63.57
79309;BME280;68767;53.078;7.386;2023-04-20T02:16:50;102322.59;;;7.71;62.69
79309;BME280;68767;53.078;7.386;2023-04-20T02:19:19;102317.25;;;7.71;62.82
79309;BME280;68767;53.078;7.386;2023-04-20T02:21:45;102310.03;;;7.71;62.84
79309;BME280;68767;53.078;7.386;2023-04-20T02:24:12;102310.53;;;7.68;62.03
79309;BME280;68767;53.078;7.386;2023-04-20T02:26:39;102314.00;;;7.69;62.20
79309;BME280;68767;53.078;7.386;2023-04-20T02:29:06;102311.59;;;7.67;62.32
79309;BME280;68767;53.078;7.386;2023-04-20T02:31:33;102310.81;;;7.67;61.94
79309;BME280;68767;53.078;7.386;2023-04-20T02:34:00;102318.34;;;7.70;60.55
79309;BME280;68767;53.078;7.386;2023-04-20T02:36:28;102317.00;;;7.77;60.04
79309;BME280;68767;53.078;7.386;2023-04-20T02:38:54;102303.09;;;7.75;59.18
79309;BME280;68767;53.078;7.386;2023-04-20T02:41:21;102297.47;;;7.77;58.70
79309;BME280;68767;53.078;7.386;2023-04-20T02:43:48;102285.47;;;7.79;58.28
79309;BME280;68767;53.078;7.386;2023-04-20T02:46:16;102283.59;;;7.80;57.92
79309;BME280;68767;53.078;7.386;2023-04-20T02:48:43;102281.19;;;7.78;57.91
79309;BME280;68767;53.078;7.386;2023-04-20T02:51:10;102294.78;;;7.77;57.81
79309;BME280;68767;53.078;7.386;2023-04-20T02:53:42;102296.44;;;7.78;57.43
79309;BME280;68767;53.078;7.386;2023-04-20T02:56:25;102288.13;;;7.79;55.47
79309;BME280;68767;53.078;7.386;2023-04-20T02:58:55;102287.88;;;7.81;56.83
79309;BME280;68767;53.078;7.386;2023-04-20T03:01:28;102282.50;;;7.81;54.65
79309;BME280;68767;53.078;7.386;2023-04-20T03:04:05;102280.66;;;7.81;53.54
79309;BME280;68767;53.078;7.386;2023-04-20T03:06:36;102282.78;;;7.84;52.25
79309;BME280;68767;53.078;7.386;2023-04-20T03:09:06;102287.13;;;7.96;50.46
79309;BME280;68767;53.078;7.386;2023-04-20T03:11:57;102286.84;;;8.02;50.00
79309;BME280;68767;53.078;7.386;2023-04-20T03:14:45;102274.53;;;8.01;49.18
79309;BME280;68767;53.078;7.386;2023-04-20T03:17:12;102282.59;;;8.06;49.21
79309;BME280;68767;53.078;7.386;2023-04-20T03:19:39;102284.47;;;8.06;49.42
79309;BME280;68767;53.078;7.386;2023-04-20T03:22:07;102276.44;;;8.06;49.35
79309;BME280;68767;53.078;7.386;2023-04-20T03:24:35;102282.06;;;8.09;49.41
79309;BME280;68767;53.078;7.386;2023-04-20T03:27:12;102283.13;;;8.08;49.58
79309;BME280;68767;53.078;7.386;2023-04-20T03:29:59;102292.22;;;8.07;50.50
79309;BME280;68767;53.078;7.386;2023-04-20T03:32:27;102285.81;;;8.08;51.27
79309;BME280;68767;53.078;7.386;2023-04-20T03:34:56;102283.66;;;8.05;52.13
79309;BME280;68767;53.078;7.386;2023-04-20T03:37:23;102283.63;;;7.95;53.15
79309;BME280;68767;53.078;7.386;2023-04-20T03:39:50;102276.63;;;7.84;53.94
79309;BME280;68767;53.078;7.386;2023-04-20T03:42:17;102274.72;;;7.74;55.25
79309;BME280;68767;53.078;7.386;2023-04-20T03:44:47;102263.47;;;7.67;54.63
79309;BME280;68767;53.078;7.386;2023-04-20T03:47:14;102263.47;;;7.67;55.59
79309;BME280;68767;53.078;7.386;2023-04-20T03:49:41;102261.31;;;7.64;54.36
79309;BME280;68767;53.078;7.386;2023-04-20T03:52:09;102254.38;;;7.68;53.83
79309;BME280;68767;53.078;7.386;2023-04-20T03:54:36;102253.31;;;7.69;53.30
79309;BME280;68767;53.078;7.386;2023-04-20T03:57:03;102261.06;;;7.66;57.59
79309;BME280;68767;53.078;7.386;2023-04-20T03:59:30;102263.88;;;7.39;57.52
79309;BME280;68767;53.078;7.386;2023-04-20T04:01:59;102266.69;;;7.17;59.67
79309;BME280;68767;53.078;7.386;2023-04-20T04:04:27;102265.53;;;7.02;61.35
79309;BME280;68767;53.078;7.386;2023-04-20T04:06:56;102262.31;;;7.00;60.65
79309;BME280;68767;53.078;7.386;2023-04-20T04:09:24;102259.38;;;7.02;61.49
79309;BME280;68767;53.078;7.386;2023-04-20T04:11:53;102259.38;;;7.02;58.96
79309;BME280;68767;53.078;7.386;2023-04-20T04:14:22;102259.16;;;7.03;60.16
79309;BME280;68767;53.078;7.386;2023-04-20T04:16:48;102259.97;;;7.09;58.86
79309;BME280;68767;53.078;7.386;2023-04-20T04:19:16;102272.56;;;7.14;58.67
79309;BME280;68767;53.078;7.386;2023-04-20T04:21:43;102268.28;;;7.13;58.74
79309;BME280;68767;53.078;7.386;2023-04-20T04:24:12;102258.13;;;7.15;59.13
79309;BME280;68767;53.078;7.386;2023-04-20T04:26:52;102254.13;;;7.17;57.36
79309;BME280;68767;53.078;7.386;2023-04-20T04:29:23;102254.41;;;7.16;57.77
79309;BME280;68767;53.078;7.386;2023-04-20T04:32:02;102261.63;;;7.15;57.75
79309;BME280;68767;53.078;7.386;2023-04-20T04:34:33;102254.41;;;7.16;58.53
79309;BME280;68767;53.078;7.386;2023-04-20T04:37:00;102248.00;;;7.17;57.13
79309;BME280;68767;53.078;7.386;2023-04-20T04:39:39;102257.66;;;7.23;57.37
79309;BME280;68767;53.078;7.386;2023-04-20T04:42:29;102246.16;;;7.22;56.36
79309;BME280;68767;53.078;7.386;2023-04-20T04:45:01;102257.38;;;7.24;57.39
79309;BME280;68767;53.078;7.386;2023-04-20T04:47:35;102255.00;;;7.28;57.33
79309;BME280;68767;53.078;7.386;2023-04-20T04:50:06;102253.38;;;7.27;56.24
79309;BME280;68767;53.078;7.386;2023-04-20T04:52:35;102260.59;;;7.26;55.82
79309;BME280;68767;53.078;7.386;2023-04-20T04:55:03;102260.34;;;7.28;57.37
79309;BME280;68767;53.078;7.386;2023-04-20T04:57:34;102261.94;;;7.24;56.48
79309;BME280;68767;53.078;7.386;2023-04-20T05:00:01;102263.00;;;7.28;56.70
79309;BME280;68767;53.078;7.386;2023-04-20T05:02:32;102258.22;;;7.30;57.97
79309;BME280;68767;53.078;7.386;2023-04-20T05:04:59;102264.66;;;7.29;56.57
79309;BME280;68767;53.078;7.386;2023-04-20T05:07:26;102268.63;;;7.26;56.16
79309;BME280;68767;53.078;7.386;2023-04-20T05:09:53;102263.28;;;7.26;55.98
79309;BME280;68767;53.078;7.386;2023-04-20T05:12:20;102262.47;;;7.21;55.99
79309;BME280;68767;53.078;7.386;2023-04-20T05:14:47;102269.69;;;7.20;56.77
79309;BME280;68767;53.078;7.386;2023-04-20T05:17:14;102264.88;;;7.22;57.48
79309;BME280;68767;53.078;7.386;2023-04-20T05:19:41;102269.94;;;7.24;56.56
79309;BME280;68767;53.078;7.386;2023-04-20T05:22:08;102273.97;;;7.26;59.64
79309;BME280;68767;53.078;7.386;2023-04-20T05:24:35;102259.22;;;7.19;57.18
79309;BME280;68767;53.078;7.386;2023-04-20T05:27:02;102270.47;;;7.21;57.73
79309;BME280;68767;53.078;7.386;2023-04-20T05:29:30;102267.81;;;7.21;57.51
79309;BME280;68767;53.078;7.386;2023-04-20T05:31:56;102272.03;;;7.17;58.24
79309;BME280;68767;53.078;7.386;2023-04-20T05:34:23;102276.81;;;7.10;59.87
79309;BME280;68767;53.078;7.386;2023-04-20T05:36:51;102284.16;;;6.92;61.27
79309;BME280;68767;53.078;7.386;2023-04-20T05:39:18;102282.44;;;6.76;64.06
79309;BME280;68767;53.078;7.386;2023-04-20T05:41:46;102284.16;;;6.55;65.53
79309;BME280;68767;53.078;7.386;2023-04-20T05:44:13;102284.56;;;6.42;66.64
79309;BME280;68767;53.078;7.386;2023-04-20T05:46:40;102293.72;;;6.24;67.68
79309;BME280;68767;53.078;7.386;2023-04-20T05:49:07;102298.63;;;6.05;72.32
79309;BME280;68767;53.078;7.386;2023-04-20T05:51:34;102293.81;;;5.85;72.71
79309;BME280;68767;53.078;7.386;2023-04-20T05:54:00;102306.81;;;5.60;75.21
79309;BME280;68767;53.078;7.386;2023-04-20T05:56:28;102304.44;;;5.42;77.67
79309;BME280;68767;53.078;7.386;2023-04-20T05:58:55;102309.94;;;5.35;79.67
79309;BME280;68767;53.078;7.386;2023-04-20T06:01:22;102316.34;;;5.17;79.87
79309;BME280;68767;53.078;7.386;2023-04-20T06:03:49;102305.88;;;5.11;82.11
79309;BME280;68767;53.078;7.386;2023-04-20T06:06:16;102312.16;;;5.04;81.85
79309;BME280;68767;53.078;7.386;2023-04-20T06:08:43;102299.03;;;4.98;83.14
79309;BME280;68767;53.078;7.386;2023-04-20T06:11:10;102322.41;;;4.96;82.70
79309;BME280;68767;53.078;7.386;2023-04-20T06:13:37;102321.59;;;4.95;84.24
79309;BME280;68767;53.078;7.386;2023-04-20T06:16:04;102312.25;;;4.93;84.37
79309;BME280;68767;53.078;7.386;2023-04-20T06:18:35;102317.66;;;4.98;87.17
79309;BME280;68767;53.078;7.386;2023-04-20T06:21:03;102317.19;;;5.01;86.08
79309;BME280;68767;53.078;7.386;2023-04-20T06:23:30;102300.13;;;5.02;85.07
79309;BME280;68767;53.078;7.386;2023-04-20T06:25:56;102303.44;;;5.09;84.57
79309;BME280;68767;53.078;7.386;2023-04-20T06:28:23;102302.72;;;5.14;86.16
79309;BME280;68767;53.078;7.386;2023-04-20T06:30:50;102307.88;;;5.20;85.44
79309;BME280;68767;53.078;7.386;2023-04-20T06:33:17;102302.63;;;5.25;87.37
79309;BME280;68767;53.078;7.386;2023-04-20T06:35:44;102298.34;;;5.24;85.57
79309;BME280;68767;53.078;7.386;2023-04-20T06:38:11;102299.66;;;5.22;84.96
79309;BME280;68767;53.078;7.386;2023-04-20T06:40:38;102305.28;;;5.25;86.57
79309;BME280;68767;53.078;7.386;2023-04-20T06:43:05;102304.47;;;5.25;86.39
79309;BME280;68767;53.078;7.386;2023-04-20T06:45:32;102300.50;;;5.27;87.95
79309;BME280;68767;53.078;7.386;2023-04-20T06:48:00;102300.84;;;5.31;86.56
79309;BME280;68767;53.078;7.386;2023-04-20T06:50:27;102289.56;;;5.24;86.15
79309;BME280;68767;53.078;7.386;2023-04-20T06:52:54;102297.84;;;5.27;87.01
79309;BME280;68767;53.078;7.386;2023-04-20T06:55:21;102297.38;;;5.30;87.30
79309;BME280;68767;53.078;7.386;2023-04-20T06:57:47;102288.88;;;5.33;88.07
79309;BME280;68767;53.078;7.386;2023-04-20T07:00:15;102292.44;;;5.39;87.76
79309;BME280;68767;53.078;7.386;2023-04-20T07:02:47;102287.09;;;5.39;86.35
79309;BME280;68767;53.078;7.386;2023-04-20T07:05:15;102281.66;;;5.51;86.71
79309;BME280;68767;53.078;7.386;2023-04-20T07:07:43;102273.84;;;5.66;85.83
79309;BME280;68767;53.078;7.386;2023-04-20T07:10:12;102276.59;;;5.71;84.61
79309;BME280;68767;53.078;7.386;2023-04-20T07:12:40;102272.28;;;5.70;85.25
79309;BME280;68767;53.078;7.386;2023-04-20T07:15:09;102263.13;;;5.83;85.42
79309;BME280;68767;53.078;7.386;2023-04-20T07:17:36;102265.00;;;5.87;85.31
79309;BME280;68767;53.078;7.386;2023-04-20T07:20:03;102269.13;;;5.95;84.65
79309;BME280;68767;53.078;7.386;2023-04-20T07:22:35;102264.38;;;5.97;85.21
79309;BME280;68767;53.078;7.386;2023-04-20T07:25:04;102264.22;;;6.09;85.37
79309;BME280;68767;53.078;7.386;2023-04-20T07:27:36;102274.88;;;6.09;87.02
79309;BME280;68767;53.078;7.386;2023-04-20T07:30:05;102279.34;;;6.25;85.31
79309;BME280;68767;53.078;7.386;2023-04-20T07:32:32;102280.69;;;6.28;83.88
79309;BME280;68767;53.078;7.386;2023-04-20T07:34:59;102279.88;;;6.27;83.61
79309;BME280;68767;53.078;7.386;2023-04-20T07:37:26;102272.94;;;6.26;84.04
79309;BME280;68767;53.078;7.386;2023-04-20T07:39:53;102269.09;;;6.17;83.73
79309;BME280;68767;53.078;7.386;2023-04-20T07:42:20;102270.53;;;6.25;84.48
79309;BME280;68767;53.078;7.386;2023-04-20T07:44:47;102265.69;;;6.22;83.92
79309;BME280;68767;53.078;7.386;2023-04-20T07:47:14;102274.53;;;6.27;84.52
79309;BME280;68767;53.078;7.386;2023-04-20T07:49:42;102266.41;;;6.39;82.77
79309;BME280;68767;53.078;7.386;2023-04-20T07:52:09;102265.34;;;6.45;84.10
79309;BME280;68767;53.078;7.386;2023-04-20T07:54:43;102265.69;;;6.54;82.16
79309;BME280;68767;53.078;7.386;2023-04-20T07:57:11;102258.59;;;6.64;82.69
79309;BME280;68767;53.078;7.386;2023-04-20T07:59:38;102262.88;;;6.65;82.81
79309;BME280;68767;53.078;7.386;2023-04-20T08:02:06;102271.75;;;6.76;82.85
79309;BME280;68767;53.078;7.386;2023-04-20T08:04:37;102274.94;;;6.73;82.85
79309;BME280;68767;53.078;7.386;2023-04-20T08:07:05;102271.91;;;6.59;82.28
79309;BME280;68767;53.078;7.386;2023-04-20T08:09:31;102286.59;;;6.62;83.68
79309;BME280;68767;53.078;7.386;2023-04-20T08:11:58;102283.84;;;6.52;82.75
79309;BME280;68767;53.078;7.386;2023-04-20T08:14:26;102283.84;;;6.52;82.32
79309;BME280;68767;53.078;7.386;2023-04-20T08:16:53;102286.03;;;6.55;82.31
79309;BME280;68767;53.078;7.386;2023-04-20T08:19:20;102278.25;;;6.53;83.86
79309;BME280;68767;53.078;7.386;2023-04-20T08:21:47;102279.16;;;6.64;83.03
79309;BME280;68767;53.078;7.386;2023-04-20T08:24:14;102276.63;;;6.84;81.92
79309;BME280;68767;53.078;7.386;2023-04-20T08:26:42;102278.94;;;7.08;81.44
79309;BME280;68767;53.078;7.386;2023-04-20T08:29:09;102277.13;;;7.18;80.69
79309;BME280;68767;53.078;7.386;2023-04-20T08:31:36;102285.03;;;6.98;80.23
79309;BME280;68767;53.078;7.386;2023-04-20T08:34:03;102282.81;;;6.90;80.61
79309;BME280;68767;53.078;7.386;2023-04-20T08:36:30;102291.09;;;6.88;80.37
79309;BME280;68767;53.078;7.386;2023-04-20T08:39:06;102290.06;;;6.94;82.47
79309;BME280;68767;53.078;7.386;2023-04-20T08:41:34;102277.50;;;6.95;82.94
79309;BME280;68767;53.078;7.386;2023-04-20T08:44:01;102287.09;;;6.91;81.46
79309;BME280;68767;53.078;7.386;2023-04-20T08:46:28;102280.44;;;6.93;80.62
79309;BME280;68767;53.078;7.386;2023-04-20T08:48:56;102290.38;;;6.98;81.32
79309;BME280;68767;53.078;7.386;2023-04-20T08:51:26;102290.53;;;6.86;82.26
79309;BME280;68767;53.078;7.386;2023-04-20T08:53:54;102298.78;;;6.80;81.69
79309;BME280;68767;53.078;7.386;2023-04-20T08:56:38;102286.00;;;6.87;84.66
79309;BME280;68767;53.078;7.386;2023-04-20T08:59:06;102282.13;;;7.04;80.21
79309;BME280;68767;53.078;7.386;2023-04-20T09:01:36;102288.13;;;7.22;80.79
79309;BME280;68767;53.078;7.386;2023-04-20T09:04:18;102287.06;;;7.28;79.07
79309;BME280;68767;53.078;7.386;2023-04-20T09:06:47;102296.63;;;7.19;81.40
79309;BME280;68767;53.078;7.386;2023-04-20T09:09:16;102299.78;;;7.06;81.10
79309;BME280;68767;53.078;7.386;2023-04-20T09:11:43;102305.06;;;7.00;80.16
79309;BME280;68767;53.078;7.386;2023-04-20T09:14:12;102304.47;;;6.93;81.01
79309;BME280;68767;53.078;7.386;2023-04-20T09:16:53;102303.88;;;6.86;81.07
79309;BME280;68767;53.078;7.386;2023-04-20T09:19:23;102302.59;;;6.89;82.15
79309;BME280;68767;53.078;7.386;2023-04-20T09:21:53;102302.44;;;7.06;80.92
79309;BME280;68767;53.078;7.386;2023-04-20T09:24:21;102299.84;;;7.16;81.36
79309;BME280;68767;53.078;7.386;2023-04-20T09:26:48;102316.63;;;7.11;80.44
79309;BME280;68767;53.078;7.386;2023-04-20T09:29:17;102300.63;;;7.16;79.11
79309;BME280;68767;53.078;7.386;2023-04-20T09:31:44;102291.94;;;7.36;78.88
79309;BME280;68767;53.078;7.386;2023-04-20T09:34:11;102299.47;;;7.44;78.52
79309;BME280;68767;53.078;7.386;2023-04-20T09:36:41;102294.72;;;7.56;79.08
79309;BME280;68767;53.078;7.386;2023-04-20T09:39:09;102294.25;;;7.70;79.81
79309;BME280;68767;53.078;7.386;2023-04-20T09:41:37;102293.13;;;7.55;78.29
79309;BME280;68767;53.078;7.386;2023-04-20T09:44:05;102297.09;;;7.53;79.99
79309;BME280;68767;53.078;7.386;2023-04-20T09:46:35;102285.28;;;7.44;78.52
79309;BME280;68767;53.078;7.386;2023-04-20T09:49:03;102282.94;;;7.57;78.65
79309;BME280;68767;53.078;7.386;2023-04-20T09:51:32;102296.63;;;7.66;79.76
79309;BME280;68767;53.078;7.386;2023-04-20T09:54:03;102295.25;;;7.58;79.95
79309;BME280;68767;53.078;7.386;2023-04-20T09:56:30;102293.03;;;7.40;78.39
79309;BME280;68767;53.078;7.386;2023-04-20T09:58:58;102286.84;;;7.29;80.56
79309;BME280;68767;53.078;7.386;2023-04-20T10:01:29;102292.41;;;7.28;80.11
79309;BME280;68767;53.078;7.386;2023-04-20T10:03:58;102283.84;;;7.26;80.16
79309;BME280;68767;53.078;7.386;2023-04-20T10:06:32;102281.50;;;7.35;80.00
79309;BME280;68767;53.078;7.386;2023-04-20T10:09:01;102282.34;;;7.40;79.50
79309;BME280;68767;53.078;7.386;2023-04-20T10:11:36;102292.19;;;7.35;80.82
79309;BME280;68767;53.078;7.386;2023-04-20T10:14:20;102298.13;;;7.42;80.23
79309;BME280;68767;53.078;7.386;2023-04-20T10:17:06;102305.63;;;7.45;79.73
79309;BME280;68767;53.078;7.386;2023-04-20T10:22:02;102301.31;;;7.44;79.08
79309;BME280;68767;53.078;7.386;2023-04-20T10:24:30;102299.94;;;7.31;80.14
79309;BME280;68767;53.078;7.386;2023-04-20T10:26:58;102309.53;;;7.27;79.96
79309;BME280;68767;53.078;7.386;2023-04-20T10:29:26;102295.91;;;7.28;80.53
79309;BME280;68767;53.078;7.386;2023-04-20T10:31:54;102301.75;;;7.25;80.49
79309;BME280;68767;53.078;7.386;2023-04-20T10:34:35;102288.13;;;7.22;80.26
79309;BME280;68767;53.078;7.386;2023-04-20T10:37:10;102279.63;;;7.30;79.97
79309;BME280;68767;53.078;7.386;2023-04-20T10:39:45;102291.97;;;7.41;81.51
79309;BME280;68767;53.078;7.386;2023-04-20T10:42:12;102282.59;;;7.44;80.15
79309;BME280;68767;53.078;7.386;2023-04-20T10:44:53;102290.63;;;7.44;80.16
79309;BME280;68767;53.078;7.386;2023-04-20T10:47:30;102292.50;;;7.38;79.44
79309;BME280;68767;53.078;7.386;2023-04-20T10:50:12;102291.66;;;7.32;79.98
79309;BME280;68767;53.078;7.386;2023-04-20T10:52:43;102288.13;;;7.27;79.81
79309;BME280;68767;53.078;7.386;2023-04-20T10:55:21;102282.56;;;7.28;81.44
79309;BME280;68767;53.078;7.386;2023-04-20T10:57:49;102283.59;;;7.27;81.03
79309;BME280;68767;53.078;7.386;2023-04-20T11:00:17;102288.41;;;7.25;81.24
79309;BME280;68767;53.078;7.386;2023-04-20T11:02:48;102291.28;;;7.19;83.66
79309;BME280;68767;53.078;7.386;2023-04-20T11:05:20;102288.28;;;7.10;82.84
79309;BME280;68767;53.078;7.386;2023-04-20T11:07:59;102282.34;;;6.98;83.53
79309;BME280;68767;53.078;7.386;2023-04-20T11:10:41;102283.53;;;7.12;84.98
79309;BME280;68767;53.078;7.386;2023-04-20T11:13:21;102281.19;;;7.26;83.33
79309;BME280;68767;53.078;7.386;2023-04-20T11:15:50;102279.56;;;7.25;83.34
79309;BME280;68767;53.078;7.386;2023-04-20T11:18:17;102275.53;;;7.70;82.14
79309;BME280;68767;53.078;7.386;2023-04-20T11:20:51;102263.13;;;8.57;80.69
79309;BME280;68767;53.078;7.386;2023-04-20T11:23:23;102254.47;;;9.21;78.66
79309;BME280;68767;53.078;7.386;2023-04-20T11:25:55;102259.72;;;9.51;76.03
79309;BME280;68767;53.078;7.386;2023-04-20T11:28:22;102261.38;;;9.47;74.73
79309;BME280;68767;53.078;7.386;2023-04-20T11:30:49;102251.66;;;9.62;75.53
79309;BME280;68767;53.078;7.386;2023-04-20T11:33:27;102246.88;;;9.48;74.97
79309;BME280;68767;53.078;7.386;2023-04-20T11:35:58;102243.16;;;9.44;75.94
79309;BME280;68767;53.078;7.386;2023-04-20T11:38:31;102246.63;;;9.45;74.91
79309;BME280;68767;53.078;7.386;2023-04-20T11:40:58;102239.31;;;9.61;72.96
79309;BME280;68767;53.078;7.386;2023-04-20T11:43:30;102236.53;;;9.81;72.45
79309;BME280;68767;53.078;7.386;2023-04-20T11:46:00;102234.28;;;9.98;71.31
79309;BME280;68767;53.078;7.386;2023-04-20T11:48:29;102247.59;;;10.19;70.61
79309;BME280;68767;53.078;7.386;2023-04-20T11:50:59;102244.00;;;10.67;69.57
79309;BME280;68767;53.078;7.386;2023-04-20T11:53:26;102253.47;;;10.60;69.67
79309;BME280;68767;53.078;7.386;2023-04-20T11:55:53;102243.09;;;10.04;67.99
79309;BME280;68767;53.078;7.386;2023-04-20T11:58:19;102241.88;;;9.86;69.54
79309;BME280;68767;53.078;7.386;2023-04-20T12:00:46;102242.91;;;9.95;70.38
79309;BME280;68767;53.078;7.386;2023-04-20T12:03:13;102245.28;;;9.97;69.09
79309;BME280;68767;53.078;7.386;2023-04-20T12:05:40;102235.41;;;10.65;66.81
79309;BME280;68767;53.078;7.386;2023-04-20T12:08:08;102232.06;;;10.79;64.04
79309;BME280;68767;53.078;7.386;2023-04-20T12:10:35;102247.84;;;10.56;65.02
79309;BME280;68767;53.078;7.386;2023-04-20T12:13:02;102240.28;;;10.29;67.00
79309;BME280;68767;53.078;7.386;2023-04-20T12:15:29;102247.13;;;10.46;67.39
79309;BME280;68767;53.078;7.386;2023-04-20T12:17:56;102244.84;;;10.63;65.13
79309;BME280;68767;53.078;7.386;2023-04-20T12:20:23;102244.19;;;10.76;66.30
79309;BME280;68767;53.078;7.386;2023-04-20T12:22:50;102240.66;;;11.52;61.85
79309;BME280;68767;53.078;7.386;2023-04-20T12:25:17;102237.78;;;12.24;59.80
79309;BME280;68767;53.078;7.386;2023-04-20T12:27:44;102245.31;;;12.74;58.83
79309;BME280;68767;53.078;7.386;2023-04-20T12:30:13;102239.84;;;12.14;58.48
79309;BME280;68767;53.078;7.386;2023-04-20T12:32:40;102232.72;;;11.42;60.52
79309;BME280;68767;53.078;7.386;2023-04-20T12:35:07;102240.19;;;10.97;62.25
79309;BME280;68767;53.078;7.386;2023-04-20T12:37:34;102232.72;;;10.94;63.86
79309;BME280;68767;53.078;7.386;2023-04-20T12:40:01;102231.13;;;10.93;64.13
79309;BME280;68767;53.078;7.386;2023-04-20T12:42:28;102238.50;;;11.07;65.03
79309;BME280;68767;53.078;7.386;2023-04-20T12:44:55;102229.97;;;11.23;62.33
79309;BME280;68767;53.078;7.386;2023-04-20T12:47:22;102222.19;;;11.22;63.13
79309;BME280;68767;53.078;7.386;2023-04-20T12:49:48;102213.81;;;11.00;62.04
79309;BME280;68767;53.078;7.386;2023-04-20T12:52:15;102217.41;;;11.62;60.55
79309;BME280;68767;53.078;7.386;2023-04-20T12:54:42;102211.09;;;12.09;58.86
79309;BME280;68767;53.078;7.386;2023-04-20T12:57:09;102203.50;;;12.90;57.32
79309;BME280;68767;53.078;7.386;2023-04-20T12:59:36;102209.00;;;12.99;55.82
79309;BME280;68767;53.078;7.386;2023-04-20T13:02:03;102200.31;;;13.02;54.97
79309;BME280;68767;53.078;7.386;2023-04-20T13:04:30;102200.63;;;13.28;57.36
79309;BME280;68767;53.078;7.386;2023-04-20T13:06:57;102194.09;;;13.92;54.54
79309;BME280;68767;53.078;7.386;2023-04-20T13:09:24;102197.34;;;14.03;51.57
79309;BME280;68767;53.078;7.386;2023-04-20T13:11:52;102194.94;;;13.29;53.78